Time;durP1;ratioP1;P1;durP2;ratioP2;P2;SDS_P1;SDS_P2;PMS_P1;PMS_P2;Temp;Humidity;BMP_temperature;BMP_pressure;BME280_temperature;BME280_humidity;BME280_pressure;Samples;Min_cycle;Max_cycle;Signal;HPM_P1;HPM_P2
2021/06/20 00:02:24;;;;;;;7.37;6.67;;;26.60;82.60;34.30;99214.00;;;;5089134;28;20211;-69
2021/06/20 00:04:49;;;;;;;7.63;6.83;;;26.60;82.70;34.50;99224.00;;;;5088995;28;20689;-70
2021/06/20 00:07:15;;;;;;;7.13;6.43;;;26.60;82.60;34.50;99229.00;;;;5089201;28;20701;-70
2021/06/20 00:09:41;;;;;;;7.87;7.07;;;26.60;82.70;34.40;99224.00;;;;5089261;28;20237;-70
2021/06/20 00:12:07;;;;;;;7.97;7.17;;;26.60;82.70;34.30;99229.00;;;;5071347;28;20243;-70
2021/06/20 00:14:33;;;;;;;7.87;6.53;;;26.60;82.70;34.40;99216.00;;;;5088756;28;20192;-70
2021/06/20 00:16:59;;;;;;;8.70;7.60;;;26.60;82.70;34.40;99238.00;;;;5088379;28;20480;-70
2021/06/20 00:19:24;;;;;;;8.20;6.93;;;26.60;82.80;34.40;99227.00;;;;5072167;28;20649;-70
2021/06/20 00:21:50;;;;;;;7.57;6.80;;;26.60;82.80;34.40;99222.00;;;;5087828;28;20234;-70
2021/06/20 00:24:16;;;;;;;7.93;6.57;;;26.60;82.90;34.30;99210.00;;;;5072019;28;20210;-70
2021/06/20 00:26:41;;;;;;;7.33;6.63;;;26.60;82.80;34.30;99214.00;;;;5089466;28;20200;-69
2021/06/20 00:29:07;;;;;;;7.80;7.00;;;26.60;82.80;34.30;99229.00;;;;5088112;28;20197;-70
2021/06/20 00:31:33;;;;;;;7.60;6.80;;;26.60;82.80;34.30;99232.00;;;;5088674;28;20221;-69
2021/06/20 00:33:58;;;;;;;7.73;6.87;;;26.50;82.90;34.30;99237.00;;;;5088561;28;20179;-70
2021/06/20 00:36:24;;;;;;;8.00;7.20;;;26.50;82.90;34.30;99233.00;;;;5071485;28;20286;-69
2021/06/20 00:38:50;;;;;;;7.07;6.20;;;26.50;82.90;34.40;99244.00;;;;5088219;28;20187;-69
2021/06/20 00:41:16;;;;;;;7.83;7.03;;;26.50;82.90;34.30;99251.00;;;;5088620;28;20204;-69
2021/06/20 00:43:41;;;;;;;8.00;7.20;;;26.50;82.90;34.40;99237.00;;;;5070749;28;20185;-70
2021/06/20 00:46:09;;;;;;;8.33;7.20;;;26.50;83.00;34.30;99251.00;;;;5072019;28;20203;-70
2021/06/20 00:48:35;;;;;;;8.40;7.60;;;26.50;83.00;34.30;99246.00;;;;5071233;28;20192;-69
2021/06/20 00:51:01;;;;;;;8.70;6.80;;;26.50;83.10;34.30;99215.00;;;;5091779;28;20481;-71
2021/06/20 00:53:27;;;;;;;7.90;7.10;;;26.50;83.10;34.30;99229.00;;;;5092003;28;20576;-69
2021/06/20 00:55:53;;;;;;;10.90;7.50;;;26.50;83.10;34.20;99223.00;;;;5075814;28;20445;-70
2021/06/20 00:58:22;;;;;;;8.77;6.47;;;26.50;83.10;34.20;99211.00;;;;5075115;28;20717;-70
2021/06/20 01:00:48;;;;;;;7.20;6.40;;;26.50;83.20;34.20;99222.00;;;;5093873;28;20194;-69
2021/06/20 01:03:13;;;;;;;7.93;7.13;;;26.50;83.20;34.20;99210.00;;;;5075516;28;20432;-69
2021/06/20 01:05:41;;;;;;;8.00;7.30;;;26.50;83.30;34.20;99213.00;;;;5093400;28;20413;-70
2021/06/20 01:08:06;;;;;;;9.07;8.17;;;26.40;83.20;34.30;99216.00;;;;5092286;28;20183;-70
2021/06/20 01:10:36;;;;;;;8.00;7.20;;;26.50;83.40;34.10;99211.00;;;;5075175;28;20824;-70
2021/06/20 01:13:06;;;;;;;7.50;6.80;;;26.40;83.30;34.20;99186.00;;;;5090808;28;20193;-69
2021/06/20 01:15:32;;;;;;;8.83;7.00;;;26.40;83.30;34.20;99214.00;;;;5092639;28;21020;-70
2021/06/20 01:17:58;;;;;;;9.83;7.00;;;26.40;83.30;34.10;99209.00;;;;5092788;28;20500;-70
2021/06/20 01:20:23;;;;;;;8.53;6.90;;;26.40;83.40;34.10;99211.00;;;;5075477;28;20179;-69
2021/06/20 01:22:50;;;;;;;9.33;7.03;;;26.40;83.50;34.20;99201.00;;;;5074558;28;20199;-69
2021/06/20 01:25:20;;;;;;;8.10;7.30;;;26.40;83.50;34.20;99204.00;;;;5057659;28;20186;-69
2021/06/20 01:28:07;;;;;;;7.50;6.80;;;26.40;83.50;34.20;99198.00;;;;5075313;28;20575;-69
2021/06/20 01:30:35;;;;;;;8.50;7.70;;;26.40;83.50;34.10;99188.00;;;;5092259;28;20466;-69
2021/06/20 01:33:04;;;;;;;7.90;7.10;;;26.40;83.50;34.10;99181.00;;;;5074052;28;20469;-69
2021/06/20 01:35:30;;;;;;;8.10;7.30;;;26.40;83.50;34.10;99176.00;;;;5059118;28;20442;-70
2021/06/20 01:37:56;;;;;;;8.37;7.47;;;26.30;83.40;34.10;99171.00;;;;5074421;28;20457;-69
2021/06/20 01:40:22;;;;;;;8.73;7.37;;;26.30;83.50;34.10;99174.00;;;;5090980;28;20181;-69
2021/06/20 01:42:48;;;;;;;7.53;6.83;;;26.40;83.60;34.20;99155.00;;;;5057880;28;20464;-69
2021/06/20 01:45:18;;;;;;;7.63;6.93;;;26.30;83.50;34.10;99162.00;;;;5074913;28;20437;-69
2021/06/20 01:47:45;;;;;;;7.13;6.40;;;26.30;83.50;34.00;99152.00;;;;5073540;28;20455;-69
2021/06/20 01:50:14;;;;;;;7.60;6.80;;;26.30;83.60;34.10;99149.00;;;;5091735;28;20476;-70
2021/06/20 01:52:40;;;;;;;7.33;6.30;;;26.30;83.60;34.20;99151.00;;;;5057569;28;20458;-69
2021/06/20 01:55:08;;;;;;;8.13;6.57;;;26.30;83.60;34.10;99143.00;;;;5073716;28;20963;-70
2021/06/20 01:57:40;;;;;;;7.33;6.63;;;26.30;83.60;34.10;99141.00;;;;5074616;28;20542;-69
2021/06/20 02:00:15;;;;;;;7.70;6.90;;;26.30;83.60;34.10;99148.00;;;;5075096;28;21023;-70
2021/06/20 02:02:42;;;;;;;7.47;6.77;;;26.30;83.60;34.00;99133.00;;;;5091682;28;20479;-69
2021/06/20 02:05:09;;;;;;;7.57;6.87;;;26.30;83.60;34.10;99143.00;;;;5090748;28;20441;-69
2021/06/20 02:07:37;;;;;;;7.87;7.07;;;26.30;83.60;34.00;99137.00;;;;5090692;28;20473;-69
2021/06/20 02:10:08;;;;;;;7.80;7.00;;;26.30;83.70;34.00;99128.00;;;;5072840;28;20530;-70
2021/06/20 02:12:33;;;;;;;7.53;6.83;;;26.20;83.60;34.00;99136.00;;;;5059030;28;20479;-69
2021/06/20 02:14:59;;;;;;;9.73;7.50;;;26.20;83.60;34.00;99143.00;;;;5090060;28;20464;-70
2021/06/20 02:17:32;;;;;;;7.67;6.87;;;26.20;83.70;34.00;99129.00;;;;5091948;28;20299;-70
2021/06/20 02:20:01;;;;;;;8.27;6.93;;;26.20;83.60;33.90;99136.00;;;;5090634;28;20180;-70
2021/06/20 02:22:27;;;;;;;8.23;7.43;;;26.30;83.80;34.00;99142.00;;;;5073809;28;20463;-69
2021/06/20 02:24:53;;;;;;;8.40;7.60;;;26.20;83.80;34.00;99141.00;;;;5073596;28;20466;-69
2021/06/20 02:27:18;;;;;;;8.20;7.40;;;26.20;83.80;33.90;99141.00;;;;5074055;28;20500;-69
2021/06/20 02:29:46;;;;;;;7.83;6.80;;;26.20;83.80;34.00;99143.00;;;;5072889;28;20176;-69
2021/06/20 02:32:12;;;;;;;7.83;7.03;;;26.20;83.80;34.00;99145.00;;;;5057187;28;20729;-70
2021/06/20 02:34:41;;;;;;;7.20;6.50;;;26.20;83.80;33.90;99141.00;;;;5073316;28;20434;-69
2021/06/20 02:37:08;;;;;;;7.60;6.80;;;26.20;83.90;34.00;99145.00;;;;5073443;28;20203;-69
2021/06/20 02:39:34;;;;;;;7.00;6.30;;;26.20;83.90;33.90;99138.00;;;;5089773;28;20434;-69
2021/06/20 02:42:00;;;;;;;8.33;7.47;;;26.20;83.90;33.90;99122.00;;;;5073189;28;20452;-69
2021/06/20 02:44:26;;;;;;;7.23;6.53;;;26.20;83.90;34.00;99134.00;;;;5073083;28;20182;-69
2021/06/20 02:46:51;;;;;;;8.00;7.20;;;26.20;83.90;33.90;99125.00;;;;5090560;28;20453;-69
2021/06/20 02:49:17;;;;;;;8.70;7.40;;;26.20;83.90;33.90;99126.00;;;;5089711;28;20490;-70
2021/06/20 02:51:44;;;;;;;7.53;6.83;;;26.20;83.90;34.00;99130.00;;;;5056453;28;20223;-69
2021/06/20 02:54:11;;;;;;;7.40;6.70;;;26.20;83.90;34.00;99125.00;;;;5073712;28;20452;-70
2021/06/20 02:56:37;;;;;;;7.77;6.97;;;26.20;83.90;33.90;99119.00;;;;5073041;28;20466;-69
2021/06/20 02:59:03;;;;;;;8.30;7.50;;;26.20;84.00;34.00;99118.00;;;;5071519;28;20593;-69
2021/06/20 03:01:29;;;;;;;8.13;7.40;;;26.10;83.80;33.90;99114.00;;;;5091581;28;21038;-69
2021/06/20 03:03:55;;;;;;;8.10;7.40;;;26.20;84.00;33.90;99118.00;;;;5089605;28;20724;-69
2021/06/20 03:06:20;;;;;;;8.23;7.50;;;26.10;83.90;33.90;99113.00;;;;5090029;28;20472;-69
2021/06/20 03:08:46;;;;;;;8.30;7.50;;;26.20;84.00;33.90;99112.00;;;;5089200;28;20654;-70
2021/06/20 03:11:12;;;;;;;7.70;6.90;;;26.20;84.00;33.90;99119.00;;;;5089244;28;20228;-69
2021/06/20 03:13:38;;;;;;;7.07;6.37;;;26.10;84.00;33.80;99112.00;;;;5088788;28;20658;-69
2021/06/20 03:16:04;;;;;;;8.37;7.57;;;26.10;84.00;33.90;99115.00;;;;5071595;28;20464;-69
2021/06/20 03:18:30;;;;;;;8.00;7.30;;;26.10;84.00;33.90;99102.00;;;;5089280;28;20175;-70
2021/06/20 03:20:57;;;;;;;7.60;6.80;;;26.10;84.00;33.90;99103.00;;;;5072590;28;20469;-69
2021/06/20 03:23:22;;;;;;;7.13;6.43;;;26.10;84.00;33.90;99114.00;;;;5072826;28;20954;-70
2021/06/20 03:25:48;;;;;;;8.23;7.43;;;26.10;84.00;33.80;99103.00;;;;5088113;28;20445;-70
2021/06/20 03:28:14;;;;;;;7.67;6.87;;;26.10;84.10;33.80;99111.00;;;;5089945;28;20180;-70
2021/06/20 03:30:40;;;;;;;7.73;6.97;;;26.10;84.10;33.90;99103.00;;;;5072787;28;20203;-69
2021/06/20 03:33:05;;;;;;;7.67;6.97;;;26.10;84.10;33.80;99104.00;;;;5106024;28;20184;-70
2021/06/20 03:35:31;;;;;;;8.17;7.37;;;26.10;84.10;33.80;99106.00;;;;5055333;28;20391;-70
2021/06/20 03:37:57;;;;;;;8.10;7.30;;;26.10;84.10;33.90;99106.00;;;;5089742;28;20203;-69
2021/06/20 03:40:22;;;;;;;8.57;7.77;;;26.00;84.00;33.80;99101.00;;;;5088823;28;20192;-70
2021/06/20 03:42:48;;;;;;;8.10;7.30;;;26.10;84.20;33.80;99104.00;;;;5073134;28;20211;-69
2021/06/20 03:45:14;;;;;;;8.37;7.57;;;26.00;84.10;33.80;99102.00;;;;5089328;28;20194;-69
2021/06/20 03:47:40;;;;;;;8.43;7.63;;;26.00;84.10;33.80;99111.00;;;;5088726;28;20206;-70
2021/06/20 03:50:07;;;;;;;7.97;7.27;;;26.00;84.10;33.80;99103.00;;;;5072154;28;20179;-70
2021/06/20 03:52:33;;;;;;;8.07;7.17;;;26.10;84.20;33.70;99117.00;;;;5072790;28;20652;-70
2021/06/20 03:54:59;;;;;;;8.50;7.60;;;26.00;84.10;33.60;99128.00;;;;5088236;28;20449;-71
2021/06/20 03:57:25;;;;;;;7.90;6.93;;;26.00;84.10;33.70;99107.00;;;;5089269;28;20689;-70
2021/06/20 03:59:51;;;;;;;8.00;7.30;;;26.00;84.10;33.80;99114.00;;;;5071542;28;20199;-70
2021/06/20 04:02:17;;;;;;;8.63;7.73;;;26.00;84.10;33.70;99115.00;;;;5071639;28;20458;-70
2021/06/20 04:04:42;;;;;;;7.27;6.57;;;26.00;84.10;33.60;99118.00;;;;5088576;28;20216;-71
2021/06/20 04:07:11;;;;;;;8.30;7.50;;;26.00;84.20;33.60;99110.00;;;;5088754;28;20306;-70
2021/06/20 04:09:38;;;;;;;8.20;7.40;;;26.00;84.10;33.80;99125.00;;;;5088371;28;20529;-70
2021/06/20 04:12:03;;;;;;;7.30;6.60;;;26.00;84.10;33.80;99137.00;;;;5072140;28;20488;-70
2021/06/20 04:14:30;;;;;;;8.13;7.33;;;26.00;84.20;33.60;99130.00;;;;5071071;28;20440;-70
2021/06/20 04:16:56;;;;;;;8.57;7.77;;;26.00;84.30;33.70;99127.00;;;;5088811;28;20548;-70
2021/06/20 04:19:22;;;;;;;7.63;6.83;;;25.90;84.20;33.70;99136.00;;;;5072281;28;20549;-70
2021/06/20 04:21:47;;;;;;;7.83;7.03;;;25.90;84.20;33.80;99141.00;;;;5089693;28;20253;-70
2021/06/20 04:24:13;;;;;;;7.73;6.93;;;25.90;84.20;33.70;99133.00;;;;5071828;28;20186;-71
2021/06/20 04:26:41;;;;;;;8.83;7.93;;;26.00;84.30;33.70;99144.00;;;;5089784;28;20206;-70
2021/06/20 04:29:07;;;;;;;8.07;7.30;;;25.90;84.20;33.60;99142.00;;;;5072212;28;20183;-70
2021/06/20 04:31:33;;;;;;;8.37;7.57;;;26.00;84.30;33.70;99147.00;;;;5089666;28;20561;-70
2021/06/20 04:33:59;;;;;;;8.27;7.47;;;25.90;84.20;33.70;99147.00;;;;5105911;28;20955;-70
2021/06/20 04:36:25;;;;;;;7.90;7.20;;;25.90;84.20;33.70;99151.00;;;;5088050;28;20230;-70
2021/06/20 04:38:50;;;;;;;7.67;6.87;;;25.90;84.30;33.70;99150.00;;;;5090075;28;20652;-70
2021/06/20 04:41:18;;;;;;;7.73;7.03;;;25.90;84.30;33.60;99151.00;;;;5070590;28;20200;-70
2021/06/20 04:46:24;;;;;;;8.13;7.40;;;25.90;84.30;33.70;99148.00;;;;5072678;28;20456;-70
2021/06/20 04:48:56;;;;;;;7.57;6.80;;;25.90;84.30;33.60;99157.00;;;;5072120;28;20513;-70
2021/06/20 04:51:22;;;;;;;8.03;7.27;;;25.90;84.30;33.60;99151.00;;;;5055358;28;20495;-70
2021/06/20 04:53:48;;;;;;;8.33;7.53;;;25.90;84.30;33.70;99156.00;;;;5071732;28;20432;-70
2021/06/20 04:56:14;;;;;;;7.00;6.30;;;25.90;84.30;33.80;99159.00;;;;5070785;28;20252;-70
2021/06/20 04:58:41;;;;;;;8.63;7.70;;;25.90;84.40;33.60;99155.00;;;;5089911;28;20438;-71
2021/06/20 05:01:07;;;;;;;8.17;7.37;;;25.90;84.30;33.70;99152.00;;;;5072028;28;20205;-70
2021/06/20 05:03:32;;;;;;;7.90;6.90;;;25.90;84.40;33.60;99156.00;;;;5071312;28;20799;-70
2021/06/20 05:05:58;;;;;;;7.73;6.93;;;25.90;84.40;33.60;99154.00;;;;5087643;28;20266;-71
2021/06/20 05:08:24;;;;;;;9.00;7.43;;;25.90;84.40;33.60;99166.00;;;;5072118;28;20218;-70
2021/06/20 05:10:53;;;;;;;7.07;6.40;;;25.90;84.40;33.70;99158.00;;;;5070901;28;20215;-70
2021/06/20 05:13:22;;;;;;;8.63;7.83;;;25.90;84.50;33.50;99166.00;;;;5072282;28;20183;-70
2021/06/20 05:15:48;;;;;;;8.30;6.40;;;25.90;84.50;33.60;99169.00;;;;5087867;28;20796;-70
2021/06/20 05:18:13;;;;;;;7.50;6.80;;;25.80;84.40;33.50;99170.00;;;;5071143;28;20440;-70
2021/06/20 05:20:40;;;;;;;7.20;6.50;;;25.90;84.50;33.50;99164.00;;;;5089363;28;20183;-70
2021/06/20 05:23:07;;;;;;;7.00;6.30;;;25.90;84.50;33.50;99169.00;;;;5071949;28;20177;-70
2021/06/20 05:25:33;;;;;;;7.13;6.43;;;25.90;84.60;33.50;99155.00;;;;5070611;28;20463;-70
2021/06/20 05:27:59;;;;;;;7.53;6.83;;;25.80;84.50;33.50;99168.00;;;;5089664;28;20466;-70
2021/06/20 05:30:24;;;;;;;7.40;6.70;;;25.90;84.60;33.60;99172.00;;;;5054347;28;20190;-70
2021/06/20 05:32:50;;;;;;;7.63;6.93;;;25.80;84.60;33.60;99175.00;;;;5070553;28;20464;-70
2021/06/20 05:35:16;;;;;;;7.93;7.13;;;25.90;84.70;33.60;99183.00;;;;5071653;28;20441;-70
2021/06/20 05:37:42;;;;;;;7.67;6.97;;;25.90;84.70;33.60;99179.00;;;;5090696;28;20222;-71
2021/06/20 05:40:09;;;;;;;7.80;7.00;;;25.90;84.70;33.60;99183.00;;;;5074464;28;20438;-71
2021/06/20 05:42:35;;;;;;;7.40;6.70;;;25.90;84.70;33.60;99187.00;;;;5074813;28;20461;-70
2021/06/20 05:45:00;;;;;;;7.60;6.90;;;25.80;84.70;33.50;99188.00;;;;5091647;28;20953;-70
2021/06/20 05:47:26;;;;;;;8.23;7.43;;;25.80;84.70;33.50;99189.00;;;;5073762;28;20233;-70
2021/06/20 05:49:52;;;;;;;6.93;6.17;;;25.80;84.60;33.50;99185.00;;;;5075079;28;20183;-70
2021/06/20 05:52:18;;;;;;;8.43;6.97;;;25.80;84.70;33.50;99186.00;;;;5073774;28;20214;-70
2021/06/20 05:54:50;;;;;;;6.67;5.97;;;25.80;84.80;33.50;99169.00;;;;5075167;28;20289;-71
2021/06/20 05:57:17;;;;;;;7.57;6.77;;;25.80;84.80;33.40;99176.00;;;;5074876;28;20204;-70
2021/06/20 05:59:43;;;;;;;7.37;6.67;;;25.80;84.80;33.40;99171.00;;;;5091081;28;20442;-70
2021/06/20 06:02:09;;;;;;;7.73;6.93;;;25.80;84.90;33.40;99165.00;;;;5074249;28;20632;-70
2021/06/20 06:04:34;;;;;;;7.13;6.43;;;25.90;85.00;33.40;99177.00;;;;5091759;28;20206;-71
2021/06/20 06:07:00;;;;;;;7.10;6.40;;;25.80;84.90;33.60;99169.00;;;;5090412;28;20222;-70
2021/06/20 06:09:26;;;;;;;7.87;7.10;;;25.80;84.90;33.40;99178.00;;;;5074694;28;20269;-70
2021/06/20 06:11:52;;;;;;;7.50;6.80;;;25.80;84.90;33.40;99176.00;;;;5090291;28;20538;-70
2021/06/20 06:14:18;;;;;;;7.30;6.40;;;25.80;84.80;33.50;99177.00;;;;5074006;28;20180;-71
2021/06/20 06:16:45;;;;;;;7.63;6.83;;;25.80;84.90;33.50;99177.00;;;;5091903;28;20199;-70
2021/06/20 06:19:10;;;;;;;6.83;6.13;;;25.80;84.90;33.60;99172.00;;;;5074824;28;20767;-70
2021/06/20 06:21:37;;;;;;;7.63;6.83;;;25.80;84.90;33.60;99163.00;;;;5091552;28;20884;-70
2021/06/20 06:24:04;;;;;;;7.43;6.63;;;25.80;84.90;33.40;99171.00;;;;5074367;28;20183;-71
2021/06/20 06:26:30;;;;;;;7.40;6.70;;;25.80;85.00;33.50;99167.00;;;;5090127;28;20548;-70
2021/06/20 06:28:56;;;;;;;7.80;7.00;;;25.80;85.00;33.40;99166.00;;;;5073580;28;20434;-70
2021/06/20 06:31:21;;;;;;;7.83;6.60;;;25.80;85.10;33.50;99169.00;;;;5090612;28;20487;-70
2021/06/20 06:33:47;;;;;;;6.53;5.90;;;25.80;85.00;33.40;99176.00;;;;5092289;28;20227;-71
2021/06/20 06:36:13;;;;;;;7.80;6.83;;;25.80;84.90;33.40;99182.00;;;;5089514;28;20198;-70
2021/06/20 06:38:39;;;;;;;6.93;6.27;;;25.80;85.00;33.40;99180.00;;;;5074344;28;20433;-71
2021/06/20 06:41:04;;;;;;;6.80;6.17;;;25.80;85.00;33.40;99183.00;;;;5090322;28;20203;-70
2021/06/20 06:43:30;;;;;;;7.37;6.67;;;25.80;85.10;33.40;99188.00;;;;5091512;28;20194;-70
2021/06/20 06:45:57;;;;;;;7.67;6.60;;;25.80;85.10;33.40;99169.00;;;;5090596;28;20179;-70
2021/06/20 06:48:23;;;;;;;7.43;6.17;;;25.80;85.10;33.30;99181.00;;;;5073083;28;20571;-70
2021/06/20 06:50:49;;;;;;;7.13;6.10;;;25.80;85.10;33.50;99175.00;;;;5090376;28;20473;-70
2021/06/20 06:53:15;;;;;;;6.80;6.07;;;25.80;85.30;33.40;99182.00;;;;5090650;28;20191;-71
2021/06/20 06:55:40;;;;;;;6.30;5.67;;;25.80;85.20;33.30;99173.00;;;;5073185;28;20215;-70
2021/06/20 06:58:06;;;;;;;7.37;6.67;;;25.80;85.30;33.40;99167.00;;;;5090225;28;20184;-74
2021/06/20 07:00:32;;;;;;;7.73;6.97;;;25.80;85.20;33.30;99164.00;;;;5073768;28;20180;-71
2021/06/20 07:02:58;;;;;;;7.63;6.83;;;25.80;85.40;33.40;99169.00;;;;5072099;28;20449;-71
2021/06/20 07:05:25;;;;;;;7.07;6.37;;;25.80;85.40;33.30;99167.00;;;;5090493;28;20224;-70
2021/06/20 07:07:52;;;;;;;7.10;5.80;;;25.80;85.30;33.40;99167.00;;;;5089692;28;20277;-71
2021/06/20 07:10:17;;;;;;;7.17;6.47;;;25.80;85.40;33.40;99170.00;;;;5072796;28;20446;-71
2021/06/20 07:12:43;;;;;;;6.50;5.90;;;25.80;85.50;33.30;99152.00;;;;5106455;28;20520;-71
2021/06/20 07:15:10;;;;;;;8.50;6.60;;;25.80;85.40;33.40;99174.00;;;;5073256;28;20349;-71
2021/06/20 07:17:36;;;;;;;7.90;6.17;;;25.80;85.50;33.30;99175.00;;;;5088890;28;20682;-70
2021/06/20 07:20:04;;;;;;;7.83;7.03;;;25.80;85.40;33.30;99172.00;;;;5073267;28;20520;-71
2021/06/20 07:22:29;;;;;;;7.43;6.73;;;25.80;85.40;33.40;99168.00;;;;5089386;28;20960;-71
2021/06/20 07:24:55;;;;;;;7.50;6.17;;;25.80;85.50;33.50;99166.00;;;;5089618;28;20547;-70
2021/06/20 07:27:21;;;;;;;6.87;6.17;;;25.80;85.40;33.40;99161.00;;;;5072192;28;20208;-71
2021/06/20 07:29:48;;;;;;;7.70;6.80;;;25.80;85.50;33.30;99154.00;;;;5089511;28;20179;-71
2021/06/20 07:32:14;;;;;;;7.10;6.40;;;25.80;85.50;33.30;99154.00;;;;5072161;28;20387;-71
2021/06/20 07:34:39;;;;;;;6.50;5.80;;;25.80;85.60;33.20;99147.00;;;;5073020;28;20986;-71
2021/06/20 07:37:05;;;;;;;7.60;6.73;;;25.80;85.60;33.20;99147.00;;;;5088792;28;20465;-71
2021/06/20 07:39:31;;;;;;;6.93;6.23;;;25.80;85.50;33.20;99151.00;;;;5072672;28;20554;-70
2021/06/20 07:41:58;;;;;;;6.70;6.00;;;25.80;85.50;33.30;99141.00;;;;5054650;28;20231;-71
2021/06/20 07:44:24;;;;;;;7.53;6.83;;;25.80;85.50;33.20;99145.00;;;;5067248;28;20201;-71
2021/06/20 07:46:49;;;;;;;6.50;5.60;;;25.80;85.60;33.30;99140.00;;;;5071340;28;20474;-71
2021/06/20 07:49:16;;;;;;;7.60;6.80;;;25.80;85.60;33.40;99130.00;;;;5088585;28;20196;-72
2021/06/20 07:51:43;;;;;;;7.70;7.00;;;25.80;85.60;33.30;99126.00;;;;5071513;28;20251;-71
2021/06/20 07:54:09;;;;;;;7.83;6.80;;;25.80;85.60;33.30;99135.00;;;;5088433;28;20524;-71
2021/06/20 07:56:35;;;;;;;7.20;6.50;;;25.80;85.60;33.40;99124.00;;;;5088424;28;20553;-71
2021/06/20 07:59:00;;;;;;;6.80;6.13;;;25.80;85.60;33.30;99128.00;;;;5086121;28;20183;-71
2021/06/20 08:01:28;;;;;;;7.97;7.17;;;25.80;85.70;33.40;99139.00;;;;5088923;28;20210;-71
2021/06/20 08:03:54;;;;;;;7.20;6.50;;;25.80;85.80;33.40;99131.00;;;;5088171;28;20175;-71
2021/06/20 08:06:20;;;;;;;7.20;6.50;;;25.80;85.80;33.40;99135.00;;;;5087818;28;20839;-71
2021/06/20 08:08:46;;;;;;;7.73;7.03;;;25.80;85.80;33.40;99134.00;;;;5087977;28;20177;-72
2021/06/20 08:11:12;;;;;;;7.83;7.10;;;25.80;85.90;33.40;99131.00;;;;5071183;28;21273;-71
2021/06/20 08:13:38;;;;;;;7.53;6.73;;;25.80;85.90;33.40;99137.00;;;;5087728;28;20425;-71
2021/06/20 08:16:04;;;;;;;7.37;6.67;;;25.80;86.00;33.40;99137.00;;;;5089354;28;20199;-71
2021/06/20 08:18:29;;;;;;;7.40;6.67;;;25.80;86.00;33.40;99126.00;;;;5071642;28;20444;-71
2021/06/20 08:20:55;;;;;;;7.90;7.13;;;25.80;86.00;33.40;99125.00;;;;5088149;28;20437;-71
2021/06/20 08:23:22;;;;;;;7.77;6.97;;;25.80;86.10;33.60;99125.00;;;;5088366;28;20228;-72
2021/06/20 08:25:48;;;;;;;7.03;6.33;;;25.80;86.10;33.50;99133.00;;;;5086877;28;20182;-71
2021/06/20 08:28:13;;;;;;;7.10;6.40;;;25.80;86.10;33.40;99132.00;;;;5086212;28;20433;-71
2021/06/20 08:30:39;;;;;;;8.37;7.27;;;25.80;86.30;33.50;99141.00;;;;5087042;28;20215;-72
2021/06/20 08:33:05;;;;;;;8.70;7.30;;;25.80;86.30;33.60;99136.00;;;;5086422;28;20672;-72
2021/06/20 08:35:31;;;;;;;7.80;7.10;;;25.80;86.30;33.60;99137.00;;;;5086430;28;20325;-72
2021/06/20 08:37:56;;;;;;;7.10;6.40;;;25.80;86.30;33.60;99134.00;;;;5071172;28;20477;-71
2021/06/20 08:40:22;;;;;;;7.90;7.20;;;25.80;86.30;33.50;99147.00;;;;5088786;28;20245;-71
2021/06/20 08:42:48;;;;;;;8.03;7.30;;;25.80;86.40;33.50;99126.00;;;;5087353;28;20679;-71
2021/06/20 08:45:15;;;;;;;7.20;6.50;;;25.80;86.40;33.50;99114.00;;;;5088574;28;20182;-71
2021/06/20 08:47:41;;;;;;;8.27;7.47;;;25.80;86.40;33.70;99140.00;;;;5055001;28;20327;-71
2021/06/20 08:50:07;;;;;;;8.13;7.33;;;25.80;86.40;33.80;99126.00;;;;5087947;28;20519;-71
2021/06/20 08:52:33;;;;;;;7.40;6.70;;;25.80;86.50;33.60;99143.00;;;;5055342;28;20774;-71
2021/06/20 08:55:02;;;;;;;8.20;7.40;;;25.80;86.50;33.70;99144.00;;;;5084366;28;20828;-71
2021/06/20 08:57:41;;;;;;;8.30;7.50;;;25.80;86.50;33.80;99150.00;;;;5068295;28;20204;-72
2021/06/20 09:00:12;;;;;;;8.03;7.23;;;25.80;86.50;33.70;99150.00;;;;5105011;28;20444;-71
2021/06/20 09:02:38;;;;;;;8.27;7.47;;;25.80;86.50;33.50;99150.00;;;;5088407;28;20472;-72
2021/06/20 09:05:07;;;;;;;7.60;6.80;;;25.80;86.50;33.60;99155.00;;;;5105812;28;20541;-72
2021/06/20 09:07:41;;;;;;;8.90;7.67;;;25.80;86.50;33.70;99147.00;;;;5088494;28;20497;-71
2021/06/20 09:10:21;;;;;;;8.20;7.40;;;25.80;86.60;33.70;99138.00;;;;5104494;28;20449;-72
2021/06/20 09:12:53;;;;;;;8.00;7.20;;;25.80;86.60;33.80;99148.00;;;;5108577;28;20468;-71
2021/06/20 09:15:27;;;;;;;8.17;7.40;;;25.80;86.60;33.70;99139.00;;;;5109196;28;20926;-72
2021/06/20 09:18:08;;;;;;;7.80;7.10;;;25.80;86.60;33.70;99136.00;;;;5108077;28;21018;-72
2021/06/20 09:20:48;;;;;;;8.30;7.50;;;25.80;86.80;33.80;99126.00;;;;5091902;28;20973;-71
2021/06/20 09:23:16;;;;;;;8.70;7.83;;;25.80;86.70;33.80;99139.00;;;;5108097;28;20449;-71
2021/06/20 09:25:54;;;;;;;7.37;6.67;;;25.80;86.70;33.70;99117.00;;;;5107940;28;20440;-71
2021/06/20 09:28:20;;;;;;;8.60;7.80;;;25.80;86.80;33.80;99140.00;;;;5106912;28;20523;-71
2021/06/20 09:30:48;;;;;;;8.17;7.43;;;25.80;86.80;33.80;99128.00;;;;5092284;28;20883;-71
2021/06/20 09:33:14;;;;;;;7.77;7.03;;;25.80;86.80;33.80;99117.00;;;;5108592;28;20177;-71
2021/06/20 09:35:53;;;;;;;7.30;6.60;;;25.80;86.90;33.80;99114.00;;;;5108496;28;20536;-72
2021/06/20 09:38:25;;;;;;;8.23;7.43;;;25.80;86.90;33.80;99109.00;;;;5107570;28;20607;-71
2021/06/20 09:41:08;;;;;;;7.50;6.80;;;25.80;87.00;33.70;99115.00;;;;5107839;28;20533;-71
2021/06/20 09:43:37;;;;;;;10.33;7.60;;;25.90;87.00;33.90;99117.00;;;;5108226;28;20457;-71
2021/06/20 09:46:03;;;;;;;9.37;8.37;;;25.80;86.80;33.90;99101.00;;;;5091889;28;20458;-72
2021/06/20 09:48:31;;;;;;;7.87;7.17;;;25.80;86.90;33.90;99095.00;;;;5091221;28;20528;-72
2021/06/20 09:51:12;;;;;;;8.13;7.33;;;25.80;86.80;33.80;99107.00;;;;5107495;28;20475;-71
2021/06/20 09:53:39;;;;;;;7.63;6.83;;;25.80;86.80;33.90;99084.00;;;;5107305;28;20455;-71
2021/06/20 09:56:28;;;;;;;9.87;6.83;;;25.80;87.00;33.80;99092.00;;;;5108120;28;20464;-72
2021/06/20 09:59:05;;;;;;;8.40;7.63;;;25.90;87.10;33.90;99087.00;;;;5107354;28;20429;-71
2021/06/20 10:01:42;;;;;;;8.20;7.40;;;25.90;87.10;33.80;99088.00;;;;5108547;28;20961;-72
2021/06/20 10:04:07;;;;;;;7.60;6.90;;;25.80;87.00;33.80;99081.00;;;;5107186;28;20437;-73
2021/06/20 10:06:33;;;;;;;7.97;7.17;;;25.90;87.00;33.90;99075.00;;;;5107450;28;20488;-72
2021/06/20 10:08:59;;;;;;;7.63;6.93;;;25.90;87.10;33.90;99082.00;;;;5108444;28;20187;-72
2021/06/20 10:11:24;;;;;;;8.43;7.53;;;25.90;87.00;34.00;99074.00;;;;5107943;28;20214;-72
2021/06/20 10:13:50;;;;;;;7.30;6.50;;;25.90;87.10;34.00;99076.00;;;;5107413;28;20182;-72
2021/06/20 10:16:37;;;;;;;8.60;7.80;;;25.90;87.10;33.90;99072.00;;;;5107489;28;20214;-72
2021/06/20 10:19:15;;;;;;;7.30;6.60;;;25.90;87.10;34.00;99063.00;;;;5107752;28;20202;-71
2021/06/20 10:21:49;;;;;;;8.27;7.47;;;25.90;87.10;33.90;99070.00;;;;5106510;28;20552;-72
2021/06/20 10:24:19;;;;;;;8.33;7.53;;;25.90;88.00;33.90;99065.00;;;;5107538;28;20983;-72
2021/06/20 10:26:51;;;;;;;8.30;7.50;;;25.90;87.10;33.80;99062.00;;;;5107196;28;20454;-72
2021/06/20 10:29:22;;;;;;;7.83;7.13;;;25.90;87.10;33.90;99055.00;;;;5092105;28;20489;-74
2021/06/20 10:31:52;;;;;;;8.50;7.70;;;25.90;87.10;33.80;99055.00;;;;5107621;28;20474;-72
2021/06/20 10:34:58;;;;;;;8.50;7.70;;;25.90;87.10;33.70;99057.00;;;;5107146;28;20579;-72
2021/06/20 10:37:26;;;;;;;8.07;7.27;;;25.90;87.10;33.80;99061.00;;;;5040270;28;20469;-71
2021/06/20 10:39:54;;;;;;;7.30;6.60;;;25.90;87.10;33.90;99061.00;;;;5106760;28;20441;-72
2021/06/20 10:42:36;;;;;;;8.10;7.33;;;25.90;87.00;34.00;99065.00;;;;5106275;28;20544;-72
2021/06/20 10:45:02;;;;;;;8.40;7.70;;;25.90;87.10;33.90;99063.00;;;;5104428;28;20441;-72
2021/06/20 10:47:36;;;;;;;8.70;7.80;;;25.90;87.10;33.90;99059.00;;;;5107392;28;20538;-72
2021/06/20 10:50:12;;;;;;;7.63;6.83;;;25.90;87.10;33.90;99061.00;;;;5105811;28;20852;-72
2021/06/20 10:52:39;;;;;;;7.60;6.90;;;25.90;87.10;33.90;99055.00;;;;5107324;28;20488;-72
2021/06/20 10:55:16;;;;;;;7.47;6.77;;;25.90;87.10;33.90;99044.00;;;;5089216;28;20458;-72
2021/06/20 10:57:55;;;;;;;7.90;7.10;;;25.90;87.10;33.90;99053.00;;;;5107180;28;20469;-72
2021/06/20 11:00:35;;;;;;;7.43;6.73;;;25.90;87.20;33.90;99054.00;;;;5106468;28;20872;-73